sensor_id;sensor_type;location;lat;lon;timestamp;P1;durP1;ratioP1;P2;durP2;ratioP2
42430;SDS011;71905;47.466;19.024;2024-03-08T00:00:17;27.63;;;18.48;;
42430;SDS011;71905;47.466;19.024;2024-03-08T00:02:47;29.67;;;19.67;;
42430;SDS011;71905;47.466;19.024;2024-03-08T00:05:17;26.17;;;17.70;;
42430;SDS011;71905;47.466;19.024;2024-03-08T00:07:45;33.80;;;21.38;;
42430;SDS011;71905;47.466;19.024;2024-03-08T00:10:13;31.55;;;20.17;;
42430;SDS011;71905;47.466;19.024;2024-03-08T00:12:44;28.92;;;19.55;;
42430;SDS011;71905;47.466;19.024;2024-03-08T00:15:13;31.27;;;20.02;;
42430;SDS011;71905;47.466;19.024;2024-03-08T00:17:44;32.25;;;20.83;;
42430;SDS011;71905;47.466;19.024;2024-03-08T00:20:17;31.30;;;21.02;;
42430;SDS011;71905;47.466;19.024;2024-03-08T00:22:46;29.15;;;19.77;;
42430;SDS011;71905;47.466;19.024;2024-03-08T00:25:14;33.00;;;20.92;;
42430;SDS011;71905;47.466;19.024;2024-03-08T00:27:42;31.67;;;20.63;;
42430;SDS011;71905;47.466;19.024;2024-03-08T00:30:11;33.83;;;21.63;;
42430;SDS011;71905;47.466;19.024;2024-03-08T00:32:41;32.42;;;22.38;;
42430;SDS011;71905;47.466;19.024;2024-03-08T00:35:09;33.20;;;21.50;;
42430;SDS011;71905;47.466;19.024;2024-03-08T00:37:40;35.28;;;22.08;;
42430;SDS011;71905;47.466;19.024;2024-03-08T00:40:09;33.67;;;22.55;;
42430;SDS011;71905;47.466;19.024;2024-03-08T00:42:37;35.80;;;22.10;;
42430;SDS011;71905;47.466;19.024;2024-03-08T00:45:06;36.58;;;23.92;;
42430;SDS011;71905;47.466;19.024;2024-03-08T00:47:37;33.58;;;21.92;;
42430;SDS011;71905;47.466;19.024;2024-03-08T00:50:06;37.78;;;23.58;;
42430;SDS011;71905;47.466;19.024;2024-03-08T00:52:35;34.50;;;21.15;;
42430;SDS011;71905;47.466;19.024;2024-03-08T00:55:05;37.53;;;22.75;;
42430;SDS011;71905;47.466;19.024;2024-03-08T00:57:34;34.38;;;21.77;;
42430;SDS011;71905;47.466;19.024;2024-03-08T01:00:03;37.10;;;23.30;;
42430;SDS011;71905;47.466;19.024;2024-03-08T01:02:34;33.58;;;21.92;;
42430;SDS011;71905;47.466;19.024;2024-03-08T01:05:04;32.88;;;21.45;;
42430;SDS011;71905;47.466;19.024;2024-03-08T01:07:36;38.97;;;24.33;;
42430;SDS011;71905;47.466;19.024;2024-03-08T01:10:06;31.42;;;21.88;;
42430;SDS011;71905;47.466;19.024;2024-03-08T01:12:37;38.88;;;24.58;;
42430;SDS011;71905;47.466;19.024;2024-03-08T01:15:05;39.33;;;24.27;;
42430;SDS011;71905;47.466;19.024;2024-03-08T01:17:34;36.13;;;23.92;;
42430;SDS011;71905;47.466;19.024;2024-03-08T01:20:03;35.88;;;22.02;;
42430;SDS011;71905;47.466;19.024;2024-03-08T01:22:31;39.35;;;23.92;;
42430;SDS011;71905;47.466;19.024;2024-03-08T01:24:59;39.90;;;24.65;;
42430;SDS011;71905;47.466;19.024;2024-03-08T01:27:29;40.25;;;24.45;;
42430;SDS011;71905;47.466;19.024;2024-03-08T01:29:57;39.25;;;24.83;;
42430;SDS011;71905;47.466;19.024;2024-03-08T01:32:26;41.00;;;25.40;;
42430;SDS011;71905;47.466;19.024;2024-03-08T01:34:54;42.13;;;25.45;;
42430;SDS011;71905;47.466;19.024;2024-03-08T01:37:22;42.40;;;26.08;;
42430;SDS011;71905;47.466;19.024;2024-03-08T01:39:50;43.58;;;27.17;;
42430;SDS011;71905;47.466;19.024;2024-03-08T01:42:18;43.15;;;26.05;;
42430;SDS011;71905;47.466;19.024;2024-03-08T01:44:48;47.78;;;27.88;;
42430;SDS011;71905;47.466;19.024;2024-03-08T01:47:16;42.20;;;25.92;;
42430;SDS011;71905;47.466;19.024;2024-03-08T01:49:46;42.10;;;26.10;;
42430;SDS011;71905;47.466;19.024;2024-03-08T01:52:15;47.30;;;28.27;;
42430;SDS011;71905;47.466;19.024;2024-03-08T01:54:45;50.53;;;28.98;;
42430;SDS011;71905;47.466;19.024;2024-03-08T01:57:13;48.13;;;29.23;;
42430;SDS011;71905;47.466;19.024;2024-03-08T01:59:42;49.28;;;29.75;;
42430;SDS011;71905;47.466;19.024;2024-03-08T02:02:12;46.28;;;28.25;;
42430;SDS011;71905;47.466;19.024;2024-03-08T02:04:43;48.85;;;29.90;;
42430;SDS011;71905;47.466;19.024;2024-03-08T02:07:12;47.13;;;28.33;;
42430;SDS011;71905;47.466;19.024;2024-03-08T02:09:40;50.95;;;30.05;;
42430;SDS011;71905;47.466;19.024;2024-03-08T02:12:08;51.08;;;30.90;;
42430;SDS011;71905;47.466;19.024;2024-03-08T02:14:38;47.40;;;29.25;;
42430;SDS011;71905;47.466;19.024;2024-03-08T02:17:07;51.33;;;30.77;;
42430;SDS011;71905;47.466;19.024;2024-03-08T02:19:36;48.63;;;29.60;;
42430;SDS011;71905;47.466;19.024;2024-03-08T02:22:06;50.63;;;29.67;;
42430;SDS011;71905;47.466;19.024;2024-03-08T02:24:34;51.15;;;29.85;;
42430;SDS011;71905;47.466;19.024;2024-03-08T02:27:02;48.65;;;29.67;;
42430;SDS011;71905;47.466;19.024;2024-03-08T02:29:30;49.75;;;29.63;;
42430;SDS011;71905;47.466;19.024;2024-03-08T02:32:00;52.05;;;32.30;;
42430;SDS011;71905;47.466;19.024;2024-03-08T02:34:29;57.30;;;32.90;;
42430;SDS011;71905;47.466;19.024;2024-03-08T02:36:58;57.42;;;31.80;;
42430;SDS011;71905;47.466;19.024;2024-03-08T02:39:28;54.30;;;32.45;;
42430;SDS011;71905;47.466;19.024;2024-03-08T02:41:56;53.05;;;31.42;;
42430;SDS011;71905;47.466;19.024;2024-03-08T02:44:24;56.78;;;31.92;;
42430;SDS011;71905;47.466;19.024;2024-03-08T02:46:52;58.58;;;32.15;;
42430;SDS011;71905;47.466;19.024;2024-03-08T02:49:21;53.50;;;31.98;;
42430;SDS011;71905;47.466;19.024;2024-03-08T02:51:49;53.80;;;32.47;;
42430;SDS011;71905;47.466;19.024;2024-03-08T02:54:17;55.25;;;32.70;;
42430;SDS011;71905;47.466;19.024;2024-03-08T02:56:47;57.40;;;31.88;;
42430;SDS011;71905;47.466;19.024;2024-03-08T02:59:16;57.75;;;32.97;;
42430;SDS011;71905;47.466;19.024;2024-03-08T03:01:45;59.67;;;33.03;;
42430;SDS011;71905;47.466;19.024;2024-03-08T03:04:13;58.88;;;33.47;;
42430;SDS011;71905;47.466;19.024;2024-03-08T03:06:41;59.03;;;34.35;;
42430;SDS011;71905;47.466;19.024;2024-03-08T03:09:09;64.13;;;34.13;;
42430;SDS011;71905;47.466;19.024;2024-03-08T03:11:37;61.92;;;34.72;;
42430;SDS011;71905;47.466;19.024;2024-03-08T03:14:07;55.20;;;32.67;;
42430;SDS011;71905;47.466;19.024;2024-03-08T03:16:35;63.22;;;34.67;;
42430;SDS011;71905;47.466;19.024;2024-03-08T03:19:03;60.50;;;34.70;;
42430;SDS011;71905;47.466;19.024;2024-03-08T03:21:32;58.05;;;33.85;;
42430;SDS011;71905;47.466;19.024;2024-03-08T03:24:02;65.70;;;36.08;;
42430;SDS011;71905;47.466;19.024;2024-03-08T03:29:07;58.65;;;31.70;;
42430;SDS011;71905;47.466;19.024;2024-03-08T03:31:37;63.55;;;34.67;;
42430;SDS011;71905;47.466;19.024;2024-03-08T03:34:06;68.53;;;35.17;;
42430;SDS011;71905;47.466;19.024;2024-03-08T03:36:35;61.45;;;33.88;;
42430;SDS011;71905;47.466;19.024;2024-03-08T03:39:04;56.78;;;32.03;;
42430;SDS011;71905;47.466;19.024;2024-03-08T03:41:37;60.00;;;34.95;;
42430;SDS011;71905;47.466;19.024;2024-03-08T03:44:07;57.72;;;33.38;;
42430;SDS011;71905;47.466;19.024;2024-03-08T03:46:36;61.55;;;34.35;;
42430;SDS011;71905;47.466;19.024;2024-03-08T03:49:04;65.45;;;36.28;;
42430;SDS011;71905;47.466;19.024;2024-03-08T03:51:32;62.10;;;34.53;;
42430;SDS011;71905;47.466;19.024;2024-03-08T03:54:00;59.58;;;33.55;;
42430;SDS011;71905;47.466;19.024;2024-03-08T03:56:30;56.22;;;32.17;;
42430;SDS011;71905;47.466;19.024;2024-03-08T03:58:58;59.60;;;33.75;;
42430;SDS011;71905;47.466;19.024;2024-03-08T04:01:27;60.65;;;34.08;;
42430;SDS011;71905;47.466;19.024;2024-03-08T04:03:56;58.72;;;33.97;;
42430;SDS011;71905;47.466;19.024;2024-03-08T04:06:24;63.10;;;34.25;;
42430;SDS011;71905;47.466;19.024;2024-03-08T04:08:52;59.38;;;34.05;;
42430;SDS011;71905;47.466;19.024;2024-03-08T04:11:20;59.65;;;33.75;;
42430;SDS011;71905;47.466;19.024;2024-03-08T04:13:48;59.53;;;33.53;;
42430;SDS011;71905;47.466;19.024;2024-03-08T04:16:16;65.28;;;36.42;;
42430;SDS011;71905;47.466;19.024;2024-03-08T04:18:46;58.60;;;33.75;;
42430;SDS011;71905;47.466;19.024;2024-03-08T04:21:15;60.53;;;34.35;;
42430;SDS011;71905;47.466;19.024;2024-03-08T04:23:43;58.65;;;35.03;;
42430;SDS011;71905;47.466;19.024;2024-03-08T04:26:12;59.15;;;33.53;;
42430;SDS011;71905;47.466;19.024;2024-03-08T04:28:42;64.63;;;35.08;;
42430;SDS011;71905;47.466;19.024;2024-03-08T04:31:10;65.50;;;36.78;;
42430;SDS011;71905;47.466;19.024;2024-03-08T04:33:38;64.18;;;35.72;;
42430;SDS011;71905;47.466;19.024;2024-03-08T04:36:08;62.60;;;35.45;;
42430;SDS011;71905;47.466;19.024;2024-03-08T04:38:40;62.35;;;35.85;;
42430;SDS011;71905;47.466;19.024;2024-03-08T04:41:08;62.47;;;35.47;;
42430;SDS011;71905;47.466;19.024;2024-03-08T04:43:37;62.78;;;34.55;;
42430;SDS011;71905;47.466;19.024;2024-03-08T04:46:05;61.80;;;36.45;;
42430;SDS011;71905;47.466;19.024;2024-03-08T04:48:33;59.33;;;34.40;;
42430;SDS011;71905;47.466;19.024;2024-03-08T04:51:03;64.85;;;34.25;;
42430;SDS011;71905;47.466;19.024;2024-03-08T04:53:33;66.88;;;35.63;;
42430;SDS011;71905;47.466;19.024;2024-03-08T04:56:01;64.32;;;34.58;;
42430;SDS011;71905;47.466;19.024;2024-03-08T04:58:32;65.13;;;36.72;;
42430;SDS011;71905;47.466;19.024;2024-03-08T05:01:01;68.22;;;36.65;;
42430;SDS011;71905;47.466;19.024;2024-03-08T05:03:29;64.15;;;36.40;;
42430;SDS011;71905;47.466;19.024;2024-03-08T05:05:57;64.95;;;35.78;;
42430;SDS011;71905;47.466;19.024;2024-03-08T05:08:25;62.10;;;35.30;;
42430;SDS011;71905;47.466;19.024;2024-03-08T05:10:54;67.45;;;36.92;;
42430;SDS011;71905;47.466;19.024;2024-03-08T05:13:22;66.28;;;36.92;;
42430;SDS011;71905;47.466;19.024;2024-03-08T05:15:51;63.75;;;35.42;;
42430;SDS011;71905;47.466;19.024;2024-03-08T05:18:19;63.97;;;36.20;;
42430;SDS011;71905;47.466;19.024;2024-03-08T05:20:48;63.80;;;35.67;;
42430;SDS011;71905;47.466;19.024;2024-03-08T05:23:17;65.00;;;35.65;;
42430;SDS011;71905;47.466;19.024;2024-03-08T05:25:47;64.10;;;36.58;;
42430;SDS011;71905;47.466;19.024;2024-03-08T05:28:16;65.15;;;35.40;;
42430;SDS011;71905;47.466;19.024;2024-03-08T05:30:44;65.90;;;36.45;;
42430;SDS011;71905;47.466;19.024;2024-03-08T05:33:12;61.33;;;35.28;;
42430;SDS011;71905;47.466;19.024;2024-03-08T05:35:41;81.80;;;41.05;;
42430;SDS011;71905;47.466;19.024;2024-03-08T05:38:09;82.28;;;42.30;;
42430;SDS011;71905;47.466;19.024;2024-03-08T05:40:39;65.82;;;36.95;;
42430;SDS011;71905;47.466;19.024;2024-03-08T05:43:10;70.68;;;37.50;;
42430;SDS011;71905;47.466;19.024;2024-03-08T05:45:40;62.15;;;34.55;;
42430;SDS011;71905;47.466;19.024;2024-03-08T05:48:08;65.25;;;35.35;;
42430;SDS011;71905;47.466;19.024;2024-03-08T05:50:36;61.00;;;34.00;;
42430;SDS011;71905;47.466;19.024;2024-03-08T05:53:10;64.43;;;36.72;;
42430;SDS011;71905;47.466;19.024;2024-03-08T05:55:38;61.38;;;34.30;;
42430;SDS011;71905;47.466;19.024;2024-03-08T05:58:07;64.75;;;35.88;;
42430;SDS011;71905;47.466;19.024;2024-03-08T06:00:36;61.40;;;34.20;;
42430;SDS011;71905;47.466;19.024;2024-03-08T06:03:05;65.47;;;36.05;;
42430;SDS011;71905;47.466;19.024;2024-03-08T06:05:34;62.35;;;35.53;;
42430;SDS011;71905;47.466;19.024;2024-03-08T06:08:02;62.08;;;34.40;;
42430;SDS011;71905;47.466;19.024;2024-03-08T06:10:31;60.22;;;35.22;;
42430;SDS011;71905;47.466;19.024;2024-03-08T06:12:58;66.50;;;35.95;;
42430;SDS011;71905;47.466;19.024;2024-03-08T06:15:28;60.95;;;35.95;;
42430;SDS011;71905;47.466;19.024;2024-03-08T06:17:55;64.47;;;35.60;;
42430;SDS011;71905;47.466;19.024;2024-03-08T06:20:25;61.45;;;34.03;;
42430;SDS011;71905;47.466;19.024;2024-03-08T06:22:53;65.90;;;37.35;;
42430;SDS011;71905;47.466;19.024;2024-03-08T06:25:21;65.93;;;36.17;;
42430;SDS011;71905;47.466;19.024;2024-03-08T06:27:49;63.90;;;36.38;;
42430;SDS011;71905;47.466;19.024;2024-03-08T06:30:19;59.90;;;34.17;;
42430;SDS011;71905;47.466;19.024;2024-03-08T06:32:48;63.38;;;35.45;;
42430;SDS011;71905;47.466;19.024;2024-03-08T06:35:18;57.17;;;32.55;;
42430;SDS011;71905;47.466;19.024;2024-03-08T06:37:48;68.95;;;35.65;;
42430;SDS011;71905;47.466;19.024;2024-03-08T06:40:17;65.50;;;35.22;;
42430;SDS011;71905;47.466;19.024;2024-03-08T06:42:45;68.38;;;36.90;;
42430;SDS011;71905;47.466;19.024;2024-03-08T06:45:13;57.08;;;32.45;;
42430;SDS011;71905;47.466;19.024;2024-03-08T06:47:46;68.18;;;35.88;;
42430;SDS011;71905;47.466;19.024;2024-03-08T06:50:14;61.22;;;34.17;;
42430;SDS011;71905;47.466;19.024;2024-03-08T06:52:42;61.05;;;34.13;;
42430;SDS011;71905;47.466;19.024;2024-03-08T06:55:12;65.00;;;35.60;;
42430;SDS011;71905;47.466;19.024;2024-03-08T06:57:40;65.65;;;35.88;;
42430;SDS011;71905;47.466;19.024;2024-03-08T07:00:09;66.53;;;37.65;;
42430;SDS011;71905;47.466;19.024;2024-03-08T07:02:40;61.20;;;35.15;;
42430;SDS011;71905;47.466;19.024;2024-03-08T07:05:08;60.22;;;34.30;;
42430;SDS011;71905;47.466;19.024;2024-03-08T07:07:37;62.58;;;34.33;;
42430;SDS011;71905;47.466;19.024;2024-03-08T07:10:08;69.10;;;35.35;;
42430;SDS011;71905;47.466;19.024;2024-03-08T07:12:39;61.28;;;34.83;;
42430;SDS011;71905;47.466;19.024;2024-03-08T07:15:07;62.03;;;34.95;;
42430;SDS011;71905;47.466;19.024;2024-03-08T07:17:40;64.00;;;35.75;;
42430;SDS011;71905;47.466;19.024;2024-03-08T07:20:11;62.92;;;35.47;;
42430;SDS011;71905;47.466;19.024;2024-03-08T07:22:40;64.68;;;37.35;;
42430;SDS011;71905;47.466;19.024;2024-03-08T07:25:13;70.63;;;35.83;;
42430;SDS011;71905;47.466;19.024;2024-03-08T07:27:50;69.53;;;38.00;;
42430;SDS011;71905;47.466;19.024;2024-03-08T07:30:20;64.82;;;35.63;;
42430;SDS011;71905;47.466;19.024;2024-03-08T07:33:06;64.32;;;35.60;;
42430;SDS011;71905;47.466;19.024;2024-03-08T07:35:39;65.10;;;36.00;;
42430;SDS011;71905;47.466;19.024;2024-03-08T07:38:08;67.20;;;36.88;;
42430;SDS011;71905;47.466;19.024;2024-03-08T07:40:38;68.63;;;36.53;;
42430;SDS011;71905;47.466;19.024;2024-03-08T07:43:12;70.45;;;36.35;;
42430;SDS011;71905;47.466;19.024;2024-03-08T07:45:41;70.90;;;38.42;;
42430;SDS011;71905;47.466;19.024;2024-03-08T07:48:09;71.65;;;37.30;;
42430;SDS011;71905;47.466;19.024;2024-03-08T07:50:38;74.18;;;37.60;;
42430;SDS011;71905;47.466;19.024;2024-03-08T07:53:07;66.07;;;36.40;;
42430;SDS011;71905;47.466;19.024;2024-03-08T07:55:35;65.55;;;36.30;;
42430;SDS011;71905;47.466;19.024;2024-03-08T07:58:04;71.57;;;37.33;;
42430;SDS011;71905;47.466;19.024;2024-03-08T08:00:34;74.50;;;38.15;;
42430;SDS011;71905;47.466;19.024;2024-03-08T08:03:03;73.15;;;37.65;;
42430;SDS011;71905;47.466;19.024;2024-03-08T08:05:31;76.22;;;37.38;;
42430;SDS011;71905;47.466;19.024;2024-03-08T08:08:02;71.82;;;36.72;;
42430;SDS011;71905;47.466;19.024;2024-03-08T08:10:33;78.68;;;38.53;;
42430;SDS011;71905;47.466;19.024;2024-03-08T08:13:01;75.80;;;39.10;;
42430;SDS011;71905;47.466;19.024;2024-03-08T08:15:31;76.65;;;39.45;;
42430;SDS011;71905;47.466;19.024;2024-03-08T08:18:02;76.78;;;39.38;;
42430;SDS011;71905;47.466;19.024;2024-03-08T08:20:33;79.78;;;39.05;;
42430;SDS011;71905;47.466;19.024;2024-03-08T08:23:01;81.00;;;39.15;;
42430;SDS011;71905;47.466;19.024;2024-03-08T08:25:30;73.93;;;39.17;;
42430;SDS011;71905;47.466;19.024;2024-03-08T08:28:01;72.03;;;36.97;;
42430;SDS011;71905;47.466;19.024;2024-03-08T08:30:31;80.97;;;39.85;;
42430;SDS011;71905;47.466;19.024;2024-03-08T08:33:00;76.00;;;38.08;;
42430;SDS011;71905;47.466;19.024;2024-03-08T08:35:30;77.05;;;40.15;;
42430;SDS011;71905;47.466;19.024;2024-03-08T08:38:00;74.78;;;37.97;;
42430;SDS011;71905;47.466;19.024;2024-03-08T08:40:30;75.75;;;38.17;;
42430;SDS011;71905;47.466;19.024;2024-03-08T08:42:58;79.03;;;39.83;;
42430;SDS011;71905;47.466;19.024;2024-03-08T08:45:27;77.95;;;40.70;;
42430;SDS011;71905;47.466;19.024;2024-03-08T08:47:55;82.50;;;39.70;;
42430;SDS011;71905;47.466;19.024;2024-03-08T08:50:23;72.38;;;39.83;;
42430;SDS011;71905;47.466;19.024;2024-03-08T08:52:53;78.60;;;39.78;;
42430;SDS011;71905;47.466;19.024;2024-03-08T08:55:21;82.50;;;40.75;;
42430;SDS011;71905;47.466;19.024;2024-03-08T08:57:52;77.47;;;39.50;;
42430;SDS011;71905;47.466;19.024;2024-03-08T09:00:23;78.45;;;39.70;;
42430;SDS011;71905;47.466;19.024;2024-03-08T09:02:54;78.00;;;39.20;;
42430;SDS011;71905;47.466;19.024;2024-03-08T09:05:25;72.28;;;38.15;;
42430;SDS011;71905;47.466;19.024;2024-03-08T09:07:54;77.97;;;39.92;;
42430;SDS011;71905;47.466;19.024;2024-03-08T09:10:23;77.38;;;40.17;;
42430;SDS011;71905;47.466;19.024;2024-03-08T09:12:56;82.50;;;43.05;;
42430;SDS011;71905;47.466;19.024;2024-03-08T09:15:26;75.72;;;38.10;;
42430;SDS011;71905;47.466;19.024;2024-03-08T09:17:55;74.25;;;38.90;;
42430;SDS011;71905;47.466;19.024;2024-03-08T09:20:24;77.55;;;39.17;;
42430;SDS011;71905;47.466;19.024;2024-03-08T09:22:52;73.93;;;38.67;;
42430;SDS011;71905;47.466;19.024;2024-03-08T09:25:22;80.30;;;40.08;;
42430;SDS011;71905;47.466;19.024;2024-03-08T09:27:50;76.15;;;39.28;;
42430;SDS011;71905;47.466;19.024;2024-03-08T09:30:18;78.80;;;41.00;;
42430;SDS011;71905;47.466;19.024;2024-03-08T09:32:48;83.53;;;42.17;;
42430;SDS011;71905;47.466;19.024;2024-03-08T09:35:18;77.72;;;40.10;;
42430;SDS011;71905;47.466;19.024;2024-03-08T09:37:46;76.07;;;40.10;;
42430;SDS011;71905;47.466;19.024;2024-03-08T09:40:18;77.75;;;40.58;;
42430;SDS011;71905;47.466;19.024;2024-03-08T09:42:48;77.72;;;41.53;;
42430;SDS011;71905;47.466;19.024;2024-03-08T09:45:17;76.78;;;39.53;;
42430;SDS011;71905;47.466;19.024;2024-03-08T09:47:48;75.82;;;40.10;;
42430;SDS011;71905;47.466;19.024;2024-03-08T09:50:16;71.05;;;38.53;;
42430;SDS011;71905;47.466;19.024;2024-03-08T09:52:46;72.57;;;38.97;;
42430;SDS011;71905;47.466;19.024;2024-03-08T09:55:17;71.28;;;37.65;;
42430;SDS011;71905;47.466;19.024;2024-03-08T09:57:51;75.35;;;38.22;;
42430;SDS011;71905;47.466;19.024;2024-03-08T10:00:43;74.65;;;39.97;;
42430;SDS011;71905;47.466;19.024;2024-03-08T10:03:11;84.65;;;41.30;;
42430;SDS011;71905;47.466;19.024;2024-03-08T10:05:41;73.70;;;38.15;;
42430;SDS011;71905;47.466;19.024;2024-03-08T10:08:11;72.22;;;39.15;;
42430;SDS011;71905;47.466;19.024;2024-03-08T10:10:39;72.60;;;38.33;;
42430;SDS011;71905;47.466;19.024;2024-03-08T10:13:09;72.80;;;38.60;;
42430;SDS011;71905;47.466;19.024;2024-03-08T10:15:39;71.05;;;38.97;;
42430;SDS011;71905;47.466;19.024;2024-03-08T10:18:07;72.75;;;38.17;;
42430;SDS011;71905;47.466;19.024;2024-03-08T10:20:36;67.18;;;36.38;;
42430;SDS011;71905;47.466;19.024;2024-03-08T10:23:05;70.43;;;37.20;;
42430;SDS011;71905;47.466;19.024;2024-03-08T10:25:37;63.20;;;34.70;;
42430;SDS011;71905;47.466;19.024;2024-03-08T10:28:06;62.67;;;34.95;;
42430;SDS011;71905;47.466;19.024;2024-03-08T10:30:35;62.47;;;35.30;;
42430;SDS011;71905;47.466;19.024;2024-03-08T10:33:04;59.65;;;34.97;;
42430;SDS011;71905;47.466;19.024;2024-03-08T10:35:33;63.05;;;35.35;;
42430;SDS011;71905;47.466;19.024;2024-03-08T10:38:01;63.47;;;34.85;;
42430;SDS011;71905;47.466;19.024;2024-03-08T10:40:35;56.58;;;34.05;;
42430;SDS011;71905;47.466;19.024;2024-03-08T10:43:28;60.25;;;34.85;;
42430;SDS011;71905;47.466;19.024;2024-03-08T10:46:15;55.97;;;32.83;;
42430;SDS011;71905;47.466;19.024;2024-03-08T10:48:50;55.65;;;33.47;;
42430;SDS011;71905;47.466;19.024;2024-03-08T10:51:23;54.15;;;32.22;;
42430;SDS011;71905;47.466;19.024;2024-03-08T10:53:52;59.78;;;33.15;;
42430;SDS011;71905;47.466;19.024;2024-03-08T10:56:20;54.85;;;32.00;;
42430;SDS011;71905;47.466;19.024;2024-03-08T10:58:49;56.58;;;32.38;;
42430;SDS011;71905;47.466;19.024;2024-03-08T11:01:19;55.08;;;32.67;;
42430;SDS011;71905;47.466;19.024;2024-03-08T11:03:48;55.75;;;33.42;;
42430;SDS011;71905;47.466;19.024;2024-03-08T11:06:22;52.53;;;31.20;;
42430;SDS011;71905;47.466;19.024;2024-03-08T11:08:57;59.60;;;34.30;;
42430;SDS011;71905;47.466;19.024;2024-03-08T11:11:28;62.72;;;34.17;;
42430;SDS011;71905;47.466;19.024;2024-03-08T11:14:01;61.38;;;34.75;;
42430;SDS011;71905;47.466;19.024;2024-03-08T11:16:38;65.97;;;37.35;;
42430;SDS011;71905;47.466;19.024;2024-03-08T11:19:23;65.00;;;36.35;;
42430;SDS011;71905;47.466;19.024;2024-03-08T11:21:57;61.28;;;35.47;;
42430;SDS011;71905;47.466;19.024;2024-03-08T11:24:26;68.13;;;36.22;;
42430;SDS011;71905;47.466;19.024;2024-03-08T11:26:56;60.45;;;36.35;;
42430;SDS011;71905;47.466;19.024;2024-03-08T11:29:33;62.83;;;35.17;;
42430;SDS011;71905;47.466;19.024;2024-03-08T11:32:06;57.10;;;33.15;;
42430;SDS011;71905;47.466;19.024;2024-03-08T11:34:36;57.30;;;34.30;;
42430;SDS011;71905;47.466;19.024;2024-03-08T11:37:05;59.40;;;34.08;;
42430;SDS011;71905;47.466;19.024;2024-03-08T11:39:36;52.42;;;31.83;;
42430;SDS011;71905;47.466;19.024;2024-03-08T11:42:04;61.90;;;35.65;;
42430;SDS011;71905;47.466;19.024;2024-03-08T11:44:33;52.25;;;31.58;;
42430;SDS011;71905;47.466;19.024;2024-03-08T11:47:09;51.17;;;32.10;;
42430;SDS011;71905;47.466;19.024;2024-03-08T11:49:38;53.53;;;31.15;;
42430;SDS011;71905;47.466;19.024;2024-03-08T11:52:10;51.80;;;31.10;;
42430;SDS011;71905;47.466;19.024;2024-03-08T11:54:39;47.22;;;29.92;;
42430;SDS011;71905;47.466;19.024;2024-03-08T11:57:07;47.17;;;28.90;;
42430;SDS011;71905;47.466;19.024;2024-03-08T11:59:36;43.58;;;26.95;;
42430;SDS011;71905;47.466;19.024;2024-03-08T12:02:04;45.95;;;28.50;;
42430;SDS011;71905;47.466;19.024;2024-03-08T12:04:34;43.88;;;28.65;;
42430;SDS011;71905;47.466;19.024;2024-03-08T12:07:03;47.97;;;29.13;;
42430;SDS011;71905;47.466;19.024;2024-03-08T12:09:35;49.63;;;32.75;;
42430;SDS011;71905;47.466;19.024;2024-03-08T12:12:04;51.78;;;30.92;;
42430;SDS011;71905;47.466;19.024;2024-03-08T12:14:35;42.03;;;26.98;;
42430;SDS011;71905;47.466;19.024;2024-03-08T12:17:03;49.30;;;29.05;;
42430;SDS011;71905;47.466;19.024;2024-03-08T12:19:32;50.70;;;29.30;;
42430;SDS011;71905;47.466;19.024;2024-03-08T12:22:08;49.47;;;29.65;;
42430;SDS011;71905;47.466;19.024;2024-03-08T12:24:37;48.03;;;30.25;;
42430;SDS011;71905;47.466;19.024;2024-03-08T12:27:17;46.28;;;27.05;;
42430;SDS011;71905;47.466;19.024;2024-03-08T12:29:46;50.00;;;30.95;;
42430;SDS011;71905;47.466;19.024;2024-03-08T12:32:14;50.28;;;31.75;;
42430;SDS011;71905;47.466;19.024;2024-03-08T12:34:43;52.72;;;31.73;;
42430;SDS011;71905;47.466;19.024;2024-03-08T12:37:13;52.13;;;32.03;;
42430;SDS011;71905;47.466;19.024;2024-03-08T12:39:43;51.15;;;31.45;;
42430;SDS011;71905;47.466;19.024;2024-03-08T12:42:15;51.15;;;30.92;;
42430;SDS011;71905;47.466;19.024;2024-03-08T12:44:45;46.92;;;28.80;;
42430;SDS011;71905;47.466;19.024;2024-03-08T12:47:13;49.03;;;27.70;;
42430;SDS011;71905;47.466;19.024;2024-03-08T12:49:41;44.70;;;27.45;;
42430;SDS011;71905;47.466;19.024;2024-03-08T12:52:09;41.78;;;25.98;;
42430;SDS011;71905;47.466;19.024;2024-03-08T12:54:39;39.72;;;25.30;;
42430;SDS011;71905;47.466;19.024;2024-03-08T12:57:08;42.15;;;26.13;;
42430;SDS011;71905;47.466;19.024;2024-03-08T12:59:36;38.95;;;24.77;;
42430;SDS011;71905;47.466;19.024;2024-03-08T13:02:04;42.90;;;26.73;;
42430;SDS011;71905;47.466;19.024;2024-03-08T13:04:33;39.95;;;24.65;;
42430;SDS011;71905;47.466;19.024;2024-03-08T13:07:02;48.60;;;26.63;;
42430;SDS011;71905;47.466;19.024;2024-03-08T13:09:31;40.45;;;26.38;;
42430;SDS011;71905;47.466;19.024;2024-03-08T13:12:05;39.80;;;23.55;;
42430;SDS011;71905;47.466;19.024;2024-03-08T13:14:35;31.20;;;22.40;;
42430;SDS011;71905;47.466;19.024;2024-03-08T13:17:03;30.77;;;20.35;;
42430;SDS011;71905;47.466;19.024;2024-03-08T13:19:31;30.55;;;18.30;;
42430;SDS011;71905;47.466;19.024;2024-03-08T13:22:00;31.13;;;19.55;;
42430;SDS011;71905;47.466;19.024;2024-03-08T13:24:30;26.38;;;18.00;;
42430;SDS011;71905;47.466;19.024;2024-03-08T13:26:59;26.30;;;18.30;;
42430;SDS011;71905;47.466;19.024;2024-03-08T13:29:28;24.23;;;16.40;;
42430;SDS011;71905;47.466;19.024;2024-03-08T13:31:58;22.27;;;16.55;;
42430;SDS011;71905;47.466;19.024;2024-03-08T13:34:28;22.08;;;15.60;;
42430;SDS011;71905;47.466;19.024;2024-03-08T13:36:57;27.02;;;15.25;;
42430;SDS011;71905;47.466;19.024;2024-03-08T13:39:27;26.95;;;15.48;;
42430;SDS011;71905;47.466;19.024;2024-03-08T13:41:57;19.50;;;13.73;;
42430;SDS011;71905;47.466;19.024;2024-03-08T13:44:25;22.60;;;14.85;;
42430;SDS011;71905;47.466;19.024;2024-03-08T13:46:55;23.92;;;15.05;;
42430;SDS011;71905;47.466;19.024;2024-03-08T13:49:25;20.90;;;15.27;;
42430;SDS011;71905;47.466;19.024;2024-03-08T13:51:53;25.77;;;17.20;;
42430;SDS011;71905;47.466;19.024;2024-03-08T13:54:21;23.40;;;16.15;;
42430;SDS011;71905;47.466;19.024;2024-03-08T13:56:49;27.67;;;18.92;;
42430;SDS011;71905;47.466;19.024;2024-03-08T13:59:20;31.98;;;20.85;;
42430;SDS011;71905;47.466;19.024;2024-03-08T14:01:49;31.65;;;20.60;;
42430;SDS011;71905;47.466;19.024;2024-03-08T14:04:19;34.30;;;22.63;;
42430;SDS011;71905;47.466;19.024;2024-03-08T14:06:47;34.08;;;23.58;;
42430;SDS011;71905;47.466;19.024;2024-03-08T14:09:16;37.30;;;22.80;;
42430;SDS011;71905;47.466;19.024;2024-03-08T14:11:44;31.73;;;21.50;;
42430;SDS011;71905;47.466;19.024;2024-03-08T14:14:13;34.72;;;22.25;;
42430;SDS011;71905;47.466;19.024;2024-03-08T14:16:41;35.17;;;22.15;;
42430;SDS011;71905;47.466;19.024;2024-03-08T14:19:09;37.83;;;23.27;;
42430;SDS011;71905;47.466;19.024;2024-03-08T14:21:39;37.20;;;24.05;;
42430;SDS011;71905;47.466;19.024;2024-03-08T14:24:08;40.92;;;25.08;;